x

Diamond Shoals (41025) Wave Buoy

12:50 - Tue 17th Jan 2017 All times are EST. -5 hours from GMT.

  • Sig Wave height 3.0ft
  • Swell Direction
  • Peak Period 8s
  • Average Period 5s
  • Wind
    11mph, 13mph gusts
  • Sea Temp 73°f
  • Luft Temp 56°f
  • Sea Pressure 1025.2mb
  • Diamond Shoals
  • Diamond Shoals

More Historic Weather Station data

Upgrade to MSW Pro to gain access to the past 30 days of data for over 8000 Wavebouys and Weather Stations around the globe.

Join Pro

Comparision Forecast

View Surf forecast
   
Di 01/17 12:50 3ft 8s 5s 11 13 mph 1025.2mb 73f 56f
Mo 01/16 11:50 3ft 8s 5s 11 13 mph 1025.9mb 73f 56f
10:50 3ft 8s 5s 13 16 mph 1026.2mb 73f 55f
9:50 3.5ft 8s 5s 16 18 mph 1027mb 73f 55f
8:50 3.5ft 8s 5s 16 18 mph 1027.1mb 73f 55f
7:50 3.5ft 7s 5s 13 16 mph 1027.2mb 73f 55f
6:50 3.5ft 8s 5s 16 18 mph 1027.6mb 73f 55f
5:50 3.5ft 7s 5s 16 18 mph 1027.7mb 73f 55f
4:50 3.5ft 8s 5s 16 20 mph 1027.5mb 73f 56f
3:50 4ft 8s 5s 18 22 mph 1027.6mb 74f 55f
2:50 4ft 8s 5s 18 22 mph 1027.8mb 74f 54f
1:50 4.5ft 8s 5s 20 22 mph 1027.6mb 74f 54f
12:50 4.5ft 6s 5s 20 25 mph 1028.3mb 74f 55f
11:50 4.5ft 8s 5s 20 25 mph 1028.8mb 74f 57f
10:50 4.5ft 5s 5s 18 22 mph 1029.5mb 74f 57f
9:50 4.5ft 5s 5s 20 22 mph 1029.4mb 74f 58f
8:50 5ft 5s 5s 20 25 mph 1029.1mb 73f 55f
7:50 4.5ft 6s 5s 20 25 mph 1028.8mb 74f 57f
6:50 5ft 6s 5s 20 22 mph 1028.3mb 74f 57f
5:50 5ft 5s 5s 22 27 mph 1027.6mb 74f 57f
4:50 5ft 5s 5s 20 25 mph 1027.1mb 74f 57f
3:50 4.5ft 5s 5s 20 25 mph 1027.3mb 74f 56f
2:50 4.5ft 11s 5s 20 25 mph 1027.7mb 74f 54f
1:50 4ft 8s 5s 20 22 mph 1027.7mb 73f 53f
12:50 4ft 11s 5s 18 20 mph 1027.6mb 73f 53f
So 01/15 11:50 4ft 8s 5s 18 22 mph 1027.6mb 74f 53f
10:50 4.5ft 11s 5s 18 22 mph 1027.7mb 74f 53f
9:50 4.5ft 6s 5s 18 20 mph 1027.7mb 73f 53f
8:50 4.5ft 11s 5s 20 25 mph 1027.5mb 74f 52f
7:50 4.5ft 11s 5s 20 25 mph 1027.2mb 74f 52f
6:50 4.5ft 5s 5s 18 22 mph 1027.3mb 74f 52f
5:50 4.5ft 10s 5s 20 25 mph 1026.9mb 74f 52f
4:50 4.5ft 6s 5s 20 27 mph 1026.4mb 74f 52f
3:50 4ft 11s 5s 18 25 mph 1026.2mb 74f 52f
2:50 4ft 11s 5s 18 22 mph 1026.3mb 74f 51f
1:50 3.5ft 11s 5s 18 25 mph 1026mb 74f 51f
12:50 4ft 11s 5s 18 22 mph 1026.1mb 75f 52f
11:50 3.5ft 11s 5s 18 22 mph 1026.6mb 75f 51f
10:50 3.5ft 11s 5s 18 22 mph 1027.4mb 75f 53f
9:50 3.5ft 10s 5s 16 20 mph 1027.4mb 75f 53f
8:50 3.5ft 11s 5s 13 18 mph 1027mb 75f 53f
7:50 4ft 11s 5s 13 18 mph 1026.5mb 75f 53f
6:50 4ft 11s 5s 13 18 mph 1026.1mb 75f 52f
5:50 4ft 11s 5s 16 20 mph 1025.8mb 75f 52f
4:50 4ft 10s 5s 18 22 mph 1025.2mb 75f 53f
3:50 4.5ft 11s 5s 16 20 mph 1024.8mb 75f 52f
2:50 4.5ft 10s 5s 18 25 mph 1025.1mb 75f 52f
1:50 4.5ft 11s 5s 18 22 mph 1025.1mb 75f 53f
12:50 4.5ft 11s 5s 18 22 mph 1025.3mb 75f 54f
Sa 01/14 11:50 4.5ft 11s 5s 18 20 mph 1025.8mb 75f 55f
10:50 4.5ft 11s 6s 16 18 mph 1026.5mb 75f 54f
9:50 5ft 12s 6s 16 20 mph 1027.1mb 75f 54f
8:50 5.5ft 11s 6s 13 18 mph 1027.3mb 75f 55f
7:50 5.5ft 12s 6s 16 20 mph 1027.4mb 75f 56f
6:50 5.5ft 11s 6s 18 22 mph 1027.5mb 75f 55f
5:50 5.5ft 11s 6s 16 20 mph 1027.4mb 76f 56f
4:50 6ft 8s 6s 16 18 mph 1027.4mb 76f 58f
3:50 6ft 9s 6s 9 11 mph 1027.7mb 76f 62f
2:50 6ft 9s 6s 13 16 mph 1027.8mb 76f 63f
1:50 6ft 9s 6s 9 11 mph 1028mb 76f 68f
12:50 6ft 9s 6s 9 11 mph 1029mb 76f 68f
11:50 5ft 8s 6s 11 16 mph 1030.2mb 76f 68f
10:50 6ft 9s 6s 11 16 mph 1031.8mb 76f 67f
9:50 6ft 11s 6s 16 18 mph 1032.2mb 76f 66f
8:50 6ft 7s 6s 18 20 mph 1031.9mb 76f 66f
7:50 6ft 12s 6s 20 25 mph 1031.5mb 76f 65f
6:50 6ft 12s 6s 18 22 mph 1031.4mb 76f 67f
5:50 6ft 6s 6s 22 27 mph 1031.1mb 76f 65f
4:50 6ft 7s 6s 20 25 mph 1031mb 76f 66f
3:50 6ft 6s 6s 22 27 mph 1031.3mb 76f 64f
2:50 6ft 6s 6s 22 27 mph 1031.9mb 76f 64f
1:50 6ft 6s 6s 22 29 mph 1032.2mb 75f 63f
12:50 6.5ft 6s 6s 25 31 mph 1032mb 75f 63f
Fr 01/13 11:50 6ft 6s 6s 25 31 mph 1032.3mb 75f 62f
10:50 6ft 6s 6s 25 29 mph 1032.8mb 75f 61f
9:50 6ft 11s 6s 25 31 mph 1032.8mb 76f 61f
8:50 5.5ft 13s 6s 25 29 mph 1032.6mb 76f 63f
7:50 5ft 12s 6s 20 25 mph 1032.1mb 76f 65f
6:50 4.5ft 11s 6s 18 22 mph 1031.6mb 76f 65f
5:50 4.5ft 12s 6s 16 20 mph 1031.1mb 76f 63f
4:50 4.5ft 11s 6s 20 25 mph 1030.6mb 76f 62f
3:50 4ft 13s 6s 18 20 mph 1030.1mb 75f 64f
2:50 4.5ft 11s 6s 11 16 mph 1029.4mb 75f 67f
1:50 4.5ft 11s 6s 16 20 mph 1029.3mb 74f 68f
12:50 4.5ft 11s 5s 18 20 mph 1029.2mb 74f 70f
11:50 4.5ft 12s 5s 20 25 mph 1029.6mb 74f 70f
10:50 5ft 13s 5s 20 25 mph 1030.6mb 74f 70f
9:50 5ft 12s 5s 20 25 mph 1030.7mb 74f 70f
8:50 5ft 11s 5s 22 25 mph 1030.3mb 73f 70f
7:50 5ft 11s 5s 20 22 mph 1029.7mb 74f 70f